createdAt,value
2018-12-12T00:00:34.629Z,1.89
2018-12-12T00:03:02.967Z,1.87
2018-12-12T00:05:31.299Z,1.83
2018-12-12T00:07:59.641Z,1.83
2018-12-12T00:10:27.975Z,1.87
2018-12-12T00:12:56.302Z,1.91
2018-12-12T00:15:24.637Z,1.90
2018-12-12T00:17:52.975Z,1.88
2018-12-12T00:20:21.305Z,1.86
2018-12-12T00:22:49.640Z,1.83
2018-12-12T00:25:17.970Z,1.84
2018-12-12T00:27:46.297Z,1.84
2018-12-12T00:30:14.669Z,1.79
2018-12-12T00:32:43.333Z,1.79
2018-12-12T00:35:11.659Z,1.73
2018-12-12T00:37:39.997Z,1.68
2018-12-12T00:40:08.579Z,1.63
2018-12-12T00:42:36.904Z,1.52
2018-12-12T00:45:05.238Z,1.44
2018-12-12T00:47:33.565Z,1.44
2018-12-12T00:50:01.906Z,1.44
2018-12-12T00:52:30.236Z,1.39
2018-12-12T00:54:58.588Z,1.33
2018-12-12T00:57:26.922Z,1.32
2018-12-12T00:59:55.261Z,1.32
2018-12-12T01:02:23.606Z,1.27
2018-12-12T01:04:51.924Z,1.26
2018-12-12T01:07:20.260Z,1.23
2018-12-12T01:09:48.584Z,1.24
2018-12-12T01:12:16.929Z,1.20
2018-12-12T01:14:45.261Z,1.15
2018-12-12T01:17:13.600Z,1.13
2018-12-12T01:19:41.940Z,1.09
2018-12-12T01:22:10.275Z,1.05
2018-12-12T01:24:38.626Z,1.03
2018-12-12T01:27:06.957Z,0.99
2018-12-12T01:29:35.284Z,0.97
2018-12-12T01:32:03.612Z,0.99
2018-12-12T01:34:31.937Z,0.99
2018-12-12T01:37:00.265Z,1.03
2018-12-12T01:39:28.580Z,1.04
2018-12-12T01:41:56.900Z,1.09
2018-12-12T01:44:25.229Z,1.21
2018-12-12T01:46:53.567Z,1.34
2018-12-12T01:49:21.889Z,1.44
2018-12-12T01:51:50.222Z,1.51
2018-12-12T01:54:18.550Z,1.61
2018-12-12T01:56:46.873Z,1.69
2018-12-12T01:59:15.193Z,1.70
2018-12-12T02:01:43.517Z,1.68
2018-12-12T02:04:11.853Z,1.70
2018-12-12T02:06:40.177Z,1.73
2018-12-12T02:09:08.499Z,1.73
2018-12-12T02:11:36.829Z,1.73
2018-12-12T02:14:05.147Z,1.73
2018-12-12T02:16:33.478Z,1.71
2018-12-12T02:19:01.811Z,1.71
2018-12-12T02:21:30.155Z,1.76
2018-12-12T02:23:58.478Z,1.84
2018-12-12T02:26:26.811Z,1.92
2018-12-12T02:28:55.135Z,1.92
2018-12-12T02:31:23.460Z,1.91
2018-12-12T02:33:51.785Z,1.85
2018-12-12T02:36:20.110Z,1.83
2018-12-12T02:38:48.437Z,1.80
2018-12-12T02:41:16.753Z,1.78
2018-12-12T02:43:45.082Z,1.81
2018-12-12T02:46:13.413Z,1.90
2018-12-12T02:48:41.748Z,2.00
2018-12-12T02:51:10.101Z,2.08
2018-12-12T02:53:38.433Z,2.11
2018-12-12T02:56:06.772Z,2.10
2018-12-12T02:58:35.101Z,2.04
2018-12-12T03:01:03.468Z,1.96
2018-12-12T03:03:31.787Z,1.96
2018-12-12T03:06:00.114Z,1.97
2018-12-12T03:08:28.452Z,2.03
2018-12-12T03:10:56.784Z,2.04
2018-12-12T03:13:25.101Z,2.04
2018-12-12T03:15:53.441Z,2.09
2018-12-12T03:18:21.781Z,2.15
2018-12-12T03:20:50.126Z,2.15
2018-12-12T03:23:18.462Z,2.13
2018-12-12T03:25:46.799Z,2.17
2018-12-12T03:28:15.127Z,2.17
2018-12-12T03:30:43.463Z,2.18
2018-12-12T03:33:11.804Z,2.21
2018-12-12T03:35:40.124Z,2.25
2018-12-12T03:38:08.454Z,2.29
2018-12-12T03:40:37.040Z,2.33
2018-12-12T03:43:05.377Z,2.26
2018-12-12T03:45:33.713Z,2.23
2018-12-12T03:48:02.038Z,2.26
2018-12-12T03:50:30.366Z,2.33
2018-12-12T03:52:58.984Z,2.34
2018-12-12T03:55:27.314Z,2.38
2018-12-12T03:57:55.640Z,2.42
2018-12-12T04:00:23.977Z,2.48
2018-12-12T04:02:52.625Z,2.54
2018-12-12T04:05:20.955Z,2.59
2018-12-12T04:07:49.285Z,2.63
2018-12-12T04:10:17.617Z,2.65
2018-12-12T04:12:45.960Z,2.67
2018-12-12T04:15:14.291Z,2.63
2018-12-12T04:17:42.616Z,2.59
2018-12-12T04:20:10.966Z,2.57
2018-12-12T04:22:39.304Z,2.60
2018-12-12T04:25:07.638Z,2.63
2018-12-12T04:27:36.932Z,2.64
2018-12-12T04:30:05.253Z,2.56
2018-12-12T04:32:33.583Z,2.49
2018-12-12T04:35:01.910Z,2.50
2018-12-12T04:37:30.242Z,2.54
2018-12-12T04:39:58.570Z,2.58
2018-12-12T04:42:26.890Z,2.61
2018-12-12T04:44:55.229Z,2.68
2018-12-12T04:47:23.555Z,2.71
2018-12-12T04:49:51.921Z,2.65
2018-12-12T04:52:20.217Z,2.65
2018-12-12T04:54:48.561Z,2.66
2018-12-12T04:57:16.890Z,2.71
2018-12-12T04:59:45.231Z,2.72
2018-12-12T05:02:13.552Z,2.75
2018-12-12T05:04:41.891Z,2.78
2018-12-12T05:07:10.223Z,2.81
2018-12-12T05:09:38.561Z,2.83
2018-12-12T05:12:06.894Z,2.78
2018-12-12T05:14:35.269Z,2.77
2018-12-12T05:17:03.580Z,2.79
2018-12-12T05:19:31.921Z,2.80
2018-12-12T05:22:00.256Z,2.82
2018-12-12T05:24:28.586Z,2.83
2018-12-12T05:26:56.920Z,2.80
2018-12-12T05:29:25.260Z,2.76
2018-12-12T05:31:53.589Z,2.75
2018-12-12T05:34:21.918Z,2.75
2018-12-12T05:36:50.253Z,2.74
2018-12-12T05:39:18.576Z,2.76
2018-12-12T05:41:46.907Z,2.80
2018-12-12T05:44:15.241Z,2.81
2018-12-12T05:46:43.579Z,2.83
2018-12-12T05:49:11.905Z,2.83
2018-12-12T05:51:40.545Z,2.86
2018-12-12T05:54:08.887Z,2.91
2018-12-12T05:56:37.216Z,2.96
2018-12-12T05:59:05.561Z,2.99
2018-12-12T06:01:33.942Z,3.02
2018-12-12T06:04:02.250Z,3.02
2018-12-12T06:06:30.618Z,2.93
2018-12-12T06:08:58.935Z,2.89
2018-12-12T06:11:27.266Z,2.87
2018-12-12T06:13:55.598Z,2.87
2018-12-12T06:16:23.927Z,2.88
2018-12-12T06:18:52.258Z,2.92
2018-12-12T06:21:20.583Z,2.99
2018-12-12T06:23:49.200Z,3.02
2018-12-12T06:26:17.553Z,2.98
2018-12-12T06:28:45.891Z,2.95
2018-12-12T06:31:14.229Z,2.97
2018-12-12T06:33:42.579Z,3.02
2018-12-12T06:36:10.919Z,3.08
2018-12-12T06:38:39.570Z,3.06
2018-12-12T06:41:07.906Z,3.07
2018-12-12T06:43:36.344Z,3.01
2018-12-12T06:46:04.674Z,2.96
2018-12-12T06:48:33.012Z,2.98
2018-12-12T06:51:01.332Z,3.01
2018-12-12T06:53:29.673Z,2.99
2018-12-12T06:55:57.999Z,2.99
2018-12-12T06:58:26.335Z,3.03
2018-12-12T07:00:54.665Z,3.11
2018-12-12T07:03:23.000Z,3.20
2018-12-12T07:05:51.334Z,3.28
2018-12-12T07:08:20.039Z,3.33
2018-12-12T07:10:48.727Z,3.36
2018-12-12T07:13:17.063Z,3.41
2018-12-12T07:15:45.418Z,3.46
2018-12-12T07:18:13.759Z,3.50
2018-12-12T07:20:42.081Z,3.55
2018-12-12T07:23:10.421Z,3.58
2018-12-12T07:25:38.780Z,3.61
2018-12-12T07:28:07.122Z,3.65
2018-12-12T07:30:35.774Z,3.64
2018-12-12T07:33:04.099Z,3.63
2018-12-12T07:35:32.432Z,3.62
2018-12-12T07:38:00.767Z,3.62
2018-12-12T07:40:29.099Z,3.62
2018-12-12T07:42:57.436Z,3.59
2018-12-12T07:45:25.781Z,3.59
2018-12-12T07:47:54.103Z,3.58
2018-12-12T07:50:22.434Z,3.63
2018-12-12T07:52:50.758Z,3.68
2018-12-12T07:55:19.095Z,3.69
2018-12-12T07:57:47.753Z,3.76
2018-12-12T08:00:16.084Z,3.86
2018-12-12T08:02:44.440Z,3.94
2018-12-12T08:05:12.774Z,4.01
2018-12-12T08:07:41.112Z,4.06
2018-12-12T08:10:09.499Z,4.11
2018-12-12T08:12:37.812Z,4.15
2018-12-12T08:15:06.135Z,4.13
2018-12-12T08:17:34.483Z,4.07
2018-12-12T08:20:02.820Z,4.05
2018-12-12T08:22:31.150Z,4.05
2018-12-12T08:24:59.486Z,4.02
2018-12-12T08:27:27.851Z,3.92
2018-12-12T08:29:56.172Z,3.86
2018-12-12T08:32:24.500Z,3.85
2018-12-12T08:34:52.823Z,3.93
2018-12-12T08:37:21.150Z,3.98
2018-12-12T08:39:49.485Z,4.01
2018-12-12T08:42:17.845Z,4.02
2018-12-12T08:44:46.170Z,4.03
2018-12-12T08:47:14.858Z,4.03
2018-12-12T08:49:43.221Z,3.96
2018-12-12T08:52:11.550Z,3.92
2018-12-12T08:54:39.888Z,3.93
2018-12-12T08:57:25.378Z,3.97
2018-12-12T08:59:50.954Z,4.03
2018-12-12T09:02:19.760Z,4.08
2018-12-12T09:04:48.076Z,4.17
2018-12-12T09:07:16.173Z,4.25
2018-12-12T09:09:44.495Z,4.32
2018-12-12T09:12:12.815Z,4.41
2018-12-12T09:14:41.226Z,4.46
2018-12-12T09:17:10.013Z,4.52
2018-12-12T09:19:37.979Z,4.60
2018-12-12T09:22:06.309Z,4.67
2018-12-12T09:24:34.656Z,4.74
2018-12-12T09:27:02.968Z,4.80
2018-12-12T09:29:31.295Z,4.86
2018-12-12T09:31:59.622Z,4.93
2018-12-12T09:34:27.935Z,4.97
2018-12-12T09:36:56.261Z,5.02
2018-12-12T09:39:24.583Z,5.07
2018-12-12T09:41:52.896Z,5.12
2018-12-12T09:44:21.227Z,5.16
2018-12-12T09:46:49.561Z,5.21
2018-12-12T09:49:17.896Z,5.27
2018-12-12T09:51:46.212Z,5.30
2018-12-12T09:54:14.529Z,5.35
2018-12-12T09:56:42.849Z,5.39
2018-12-12T09:59:11.172Z,5.39
2018-12-12T10:01:39.502Z,5.42
2018-12-12T10:04:07.805Z,5.46
2018-12-12T10:06:36.122Z,5.49
2018-12-12T10:09:04.448Z,5.50
2018-12-12T10:11:32.791Z,5.51
2018-12-12T10:14:01.131Z,5.52
2018-12-12T10:16:29.469Z,5.52
2018-12-12T10:18:57.794Z,5.50
2018-12-12T10:21:26.135Z,5.46
2018-12-12T10:23:54.480Z,5.40
2018-12-12T10:26:22.809Z,5.35
2018-12-12T10:28:51.157Z,5.25
2018-12-12T10:31:19.487Z,5.22
2018-12-12T10:33:47.833Z,5.18
2018-12-12T10:36:16.172Z,5.19
2018-12-12T10:38:44.519Z,5.20
2018-12-12T10:41:12.847Z,5.21
2018-12-12T10:43:41.763Z,5.23
2018-12-12T10:46:10.098Z,5.25
2018-12-12T10:48:38.438Z,5.26
2018-12-12T10:51:06.759Z,5.25
2018-12-12T10:53:35.105Z,5.22
2018-12-12T10:56:15.901Z,5.20
2018-12-12T10:58:44.799Z,5.17
2018-12-12T11:01:18.689Z,5.12
2018-12-12T11:03:47.026Z,5.11
2018-12-12T11:06:15.348Z,5.12
2018-12-12T11:08:43.684Z,5.15
2018-12-12T11:11:12.021Z,5.20
2018-12-12T11:13:40.345Z,5.23
2018-12-12T11:16:08.713Z,5.28
2018-12-12T11:18:37.033Z,5.32
2018-12-12T11:21:05.353Z,5.36
2018-12-12T11:23:33.691Z,5.34
2018-12-12T11:26:02.049Z,5.29
2018-12-12T11:28:30.375Z,5.26
2018-12-12T11:30:58.709Z,5.28
2018-12-12T11:33:27.040Z,5.30
2018-12-12T11:35:55.374Z,5.32
2018-12-12T11:38:23.702Z,5.40
2018-12-12T11:40:52.041Z,5.47
2018-12-12T11:43:20.377Z,5.50
2018-12-12T11:45:48.721Z,5.52
2018-12-12T11:48:17.056Z,5.55
2018-12-12T11:50:45.383Z,5.55
2018-12-12T11:53:13.713Z,5.57
2018-12-12T11:55:42.053Z,5.56
2018-12-12T11:58:10.392Z,5.55
2018-12-12T12:00:38.717Z,5.52
2018-12-12T12:03:07.043Z,5.49
2018-12-12T12:05:35.387Z,5.45
2018-12-12T12:08:03.716Z,5.38
2018-12-12T12:10:32.060Z,5.38
2018-12-12T12:13:00.388Z,5.42
2018-12-12T12:15:28.731Z,5.46
2018-12-12T12:17:57.064Z,5.49
2018-12-12T12:20:25.388Z,5.48
2018-12-12T12:22:53.723Z,5.50
2018-12-12T12:25:22.081Z,5.51
2018-12-12T12:27:50.418Z,5.51
2018-12-12T12:30:18.746Z,5.52
2018-12-12T12:32:47.068Z,5.51
2018-12-12T12:35:15.377Z,5.54
2018-12-12T12:37:43.709Z,5.53
2018-12-12T12:40:12.036Z,5.53
2018-12-12T12:42:40.347Z,5.54
2018-12-12T12:45:08.671Z,5.53
2018-12-12T12:47:36.986Z,5.51
2018-12-12T12:50:05.783Z,5.46
2018-12-12T12:52:34.098Z,5.42
2018-12-12T12:55:03.327Z,5.43
2018-12-12T12:57:32.427Z,5.47
2018-12-12T13:00:00.744Z,5.47
2018-12-12T13:02:29.055Z,5.48
2018-12-12T13:04:57.381Z,5.49
2018-12-12T13:07:25.691Z,5.50
2018-12-12T13:09:54.011Z,5.53
2018-12-12T13:12:22.328Z,5.56
2018-12-12T13:14:50.639Z,5.56
2018-12-12T13:17:18.966Z,5.57
2018-12-12T13:19:47.304Z,5.55
2018-12-12T13:22:15.647Z,5.56
2018-12-12T13:24:43.961Z,5.56
2018-12-12T13:27:12.288Z,5.56
2018-12-12T13:29:40.836Z,5.58
2018-12-12T13:32:08.948Z,5.60
2018-12-12T13:34:37.273Z,5.62
2018-12-12T13:37:05.608Z,5.63
2018-12-12T13:39:33.923Z,5.65
2018-12-12T13:42:02.245Z,5.66
2018-12-12T13:44:30.576Z,5.68
2018-12-12T13:46:58.906Z,5.69
2018-12-12T13:49:27.234Z,5.70
2018-12-12T13:51:55.565Z,5.70
2018-12-12T13:54:23.881Z,5.70
2018-12-12T13:56:52.217Z,5.69
2018-12-12T13:59:20.557Z,5.69
2018-12-12T14:01:49.450Z,5.70
2018-12-12T14:04:22.574Z,5.70
2018-12-12T14:06:46.116Z,5.71
2018-12-12T14:09:15.168Z,5.68
2018-12-12T14:11:43.513Z,5.67
2018-12-12T14:14:12.075Z,5.66
2018-12-12T14:16:40.170Z,5.67
2018-12-12T14:19:08.499Z,5.68
2018-12-12T14:21:36.846Z,5.68
2018-12-12T14:24:05.181Z,5.67
2018-12-12T14:26:33.720Z,5.66
2018-12-12T14:29:02.052Z,5.66
2018-12-12T14:31:30.380Z,5.66
2018-12-12T14:33:58.717Z,5.66
2018-12-12T14:36:27.054Z,5.66
2018-12-12T14:38:55.370Z,5.67
2018-12-12T14:41:23.711Z,5.67
2018-12-12T14:43:52.047Z,5.68
2018-12-12T14:46:20.410Z,5.70
2018-12-12T14:48:48.737Z,5.70
2018-12-12T14:51:17.062Z,5.69
2018-12-12T14:53:45.402Z,5.68
2018-12-12T14:56:13.777Z,5.67
2018-12-12T14:58:42.121Z,5.67
2018-12-12T15:01:10.478Z,5.65
2018-12-12T15:03:38.824Z,5.65
2018-12-12T15:06:07.144Z,5.63
2018-12-12T15:08:35.492Z,5.61
2018-12-12T15:11:03.830Z,5.60
2018-12-12T15:13:32.175Z,5.59
2018-12-12T15:16:00.804Z,5.59
2018-12-12T15:18:29.154Z,5.60
2018-12-12T15:20:57.486Z,5.58
2018-12-12T15:23:25.869Z,5.57
2018-12-12T15:25:54.210Z,5.58
2018-12-12T15:28:22.566Z,5.58
2018-12-12T15:30:50.909Z,5.61
2018-12-12T15:33:19.248Z,5.63
2018-12-12T15:35:47.597Z,5.65
2018-12-12T15:38:15.998Z,5.65
2018-12-12T15:40:44.640Z,5.66
2018-12-12T15:43:13.577Z,5.67
2018-12-12T15:45:42.000Z,5.67
2018-12-12T15:48:10.693Z,5.66
2018-12-12T15:50:39.032Z,5.66
2018-12-12T15:53:07.472Z,5.65
2018-12-12T15:55:35.801Z,5.65
2018-12-12T15:58:04.140Z,5.65
2018-12-12T16:00:32.473Z,5.64
2018-12-12T16:03:00.841Z,5.65
2018-12-12T16:05:29.160Z,5.65
2018-12-12T16:07:57.550Z,5.65
2018-12-12T16:10:25.905Z,5.65
2018-12-12T16:12:54.218Z,5.63
2018-12-12T16:15:22.562Z,5.60
2018-12-12T16:17:50.888Z,5.59
2018-12-12T16:20:19.458Z,5.60
2018-12-12T16:22:47.583Z,5.60
2018-12-12T16:25:15.932Z,5.58
2018-12-12T16:27:44.288Z,5.57
2018-12-12T16:30:12.691Z,5.56
2018-12-12T16:32:41.012Z,5.55
2018-12-12T16:35:09.327Z,5.49
2018-12-12T16:37:37.659Z,5.46
2018-12-12T16:40:05.983Z,5.40
2018-12-12T16:42:34.300Z,5.33
2018-12-12T16:45:02.627Z,5.27
2018-12-12T16:47:30.954Z,5.22
2018-12-12T16:49:59.313Z,5.18
2018-12-12T16:52:27.634Z,5.15
2018-12-12T16:54:55.960Z,5.10
2018-12-12T16:57:24.287Z,5.09
2018-12-12T16:59:52.641Z,5.07
2018-12-12T17:02:20.969Z,5.07
2018-12-12T17:04:49.299Z,5.04
2018-12-12T17:07:17.639Z,5.02
2018-12-12T17:09:45.991Z,5.02
2018-12-12T17:12:14.406Z,4.99
2018-12-12T17:14:42.676Z,5.01
2018-12-12T17:17:11.057Z,5.03
2018-12-12T17:19:39.382Z,5.05
2018-12-12T17:22:08.672Z,5.08
2018-12-12T17:24:36.989Z,5.09
2018-12-12T17:27:05.346Z,5.05
2018-12-12T17:29:33.826Z,4.99
2018-12-12T17:32:02.125Z,4.98
2018-12-12T17:34:30.483Z,4.99
2018-12-12T17:36:58.819Z,5.02
2018-12-12T17:39:27.154Z,5.01
2018-12-12T17:41:55.483Z,5.02
2018-12-12T17:44:23.825Z,4.99
2018-12-12T17:46:52.164Z,4.97
2018-12-12T17:49:20.506Z,4.94
2018-12-12T17:51:48.933Z,4.90
2018-12-12T17:54:17.301Z,4.91
2018-12-12T17:56:45.643Z,4.91
2018-12-12T17:59:13.978Z,4.93
2018-12-12T18:01:42.304Z,4.95
2018-12-12T18:04:10.650Z,4.97
2018-12-12T18:06:38.997Z,4.98
2018-12-12T18:09:07.385Z,5.01
2018-12-12T18:11:35.762Z,5.04
2018-12-12T18:14:04.103Z,5.07
2018-12-12T18:16:32.436Z,5.11
2018-12-12T18:19:00.802Z,5.14
2018-12-12T18:21:29.194Z,5.16
2018-12-12T18:23:57.517Z,5.20
2018-12-12T18:26:26.115Z,5.23
2018-12-12T18:28:54.569Z,5.25
2018-12-12T18:31:22.879Z,5.26
2018-12-12T18:33:51.217Z,5.24
2018-12-12T18:36:19.653Z,5.18
2018-12-12T18:38:47.993Z,5.14
2018-12-12T18:41:16.329Z,5.12
2018-12-12T18:43:44.670Z,5.08
2018-12-12T18:46:13.018Z,5.03
2018-12-12T18:48:41.371Z,5.02
2018-12-12T18:51:09.669Z,5.02
2018-12-12T18:53:38.260Z,4.99
2018-12-12T18:56:06.598Z,4.95
2018-12-12T18:58:42.606Z,4.93
2018-12-12T19:01:11.418Z,4.91
2018-12-12T19:03:39.759Z,4.88
2018-12-12T19:06:08.085Z,4.87
2018-12-12T19:08:36.434Z,4.84
2018-12-12T19:11:05.099Z,4.83
2018-12-12T19:13:33.417Z,4.81
2018-12-12T19:16:01.792Z,4.81
2018-12-12T19:18:30.124Z,4.80
2018-12-12T19:21:00.168Z,4.79
2018-12-12T19:23:26.782Z,4.77
2018-12-12T19:25:55.127Z,4.74
2018-12-12T19:28:23.470Z,4.70
2018-12-12T19:30:51.841Z,4.63
2018-12-12T19:33:20.542Z,4.56
2018-12-12T19:35:48.880Z,4.51
2018-12-12T19:38:17.199Z,4.47
2018-12-12T19:40:45.597Z,4.42
2018-12-12T19:43:14.095Z,4.38
2018-12-12T19:45:42.421Z,4.38
2018-12-12T19:48:10.759Z,4.28
2018-12-12T19:50:39.097Z,4.18
2018-12-12T19:53:07.439Z,4.14
2018-12-12T19:55:36.030Z,4.11
2018-12-12T19:58:05.054Z,4.09
2018-12-12T20:00:33.404Z,4.11
2018-12-12T20:03:02.082Z,4.14
2018-12-12T20:05:30.784Z,4.20
2018-12-12T20:07:59.289Z,4.23
2018-12-12T20:10:27.689Z,4.28
2018-12-12T20:12:56.245Z,4.32
2018-12-12T20:15:30.586Z,4.34
2018-12-12T20:17:58.927Z,4.34
2018-12-12T20:20:27.256Z,4.38
2018-12-12T20:22:55.596Z,4.40
2018-12-12T20:25:23.939Z,4.42
2018-12-12T20:27:52.274Z,4.44
2018-12-12T20:30:20.609Z,4.47
2018-12-12T20:32:48.991Z,4.52
2018-12-12T20:35:17.322Z,4.61
2018-12-12T20:37:45.659Z,4.63
2018-12-12T20:40:13.989Z,4.66
2018-12-12T20:42:42.327Z,4.70
2018-12-12T20:45:10.659Z,4.68
2018-12-12T20:47:39.118Z,4.70
2018-12-12T20:50:07.461Z,4.73
2018-12-12T20:52:35.806Z,4.77
2018-12-12T20:55:04.156Z,4.73
2018-12-12T20:57:32.671Z,4.68
2018-12-12T21:00:01.357Z,4.53
2018-12-12T21:02:29.392Z,4.43
2018-12-12T21:04:58.871Z,4.41
2018-12-12T21:07:27.198Z,4.41
2018-12-12T21:09:55.841Z,4.43
2018-12-12T21:12:25.489Z,4.44
2018-12-12T21:14:53.575Z,4.45
2018-12-12T21:17:22.130Z,4.47
2018-12-12T21:22:49.101Z,4.52
2018-12-12T21:25:20.806Z,4.54
2018-12-12T21:27:49.134Z,4.56
2018-12-12T21:30:17.522Z,4.57
2018-12-12T21:32:45.832Z,4.58
2018-12-12T21:35:14.156Z,4.60
2018-12-12T21:37:42.474Z,4.63
2018-12-12T21:40:10.804Z,4.61
2018-12-12T21:42:39.170Z,4.61
2018-12-12T21:45:07.494Z,4.63
2018-12-12T21:47:35.801Z,4.65
2018-12-12T21:50:04.137Z,4.66
2018-12-12T21:52:32.485Z,4.69
2018-12-12T21:55:00.825Z,4.72
2018-12-12T21:57:29.138Z,4.72
2018-12-12T21:59:57.460Z,4.73
2018-12-12T22:02:25.784Z,4.75
2018-12-12T22:04:54.114Z,4.76
2018-12-12T22:07:22.465Z,4.77
2018-12-12T22:09:50.788Z,4.79
2018-12-12T22:12:19.164Z,4.80
2018-12-12T22:14:47.488Z,4.80
2018-12-12T22:17:15.827Z,4.80
2018-12-12T22:19:44.138Z,4.81
2018-12-12T22:22:12.459Z,4.82
2018-12-12T22:24:40.788Z,4.82
2018-12-12T22:27:09.107Z,4.79
2018-12-12T22:29:37.414Z,4.76
2018-12-12T22:32:05.730Z,4.72
2018-12-12T22:34:34.070Z,4.68
2018-12-12T22:37:02.392Z,4.66
2018-12-12T22:39:30.718Z,4.64
2018-12-12T22:41:59.035Z,4.63
2018-12-12T22:44:27.363Z,4.63
2018-12-12T22:46:55.681Z,4.63
2018-12-12T22:49:24.002Z,4.63
2018-12-12T22:51:52.317Z,4.65
2018-12-12T22:54:20.628Z,4.65
2018-12-12T22:56:48.964Z,4.69
2018-12-12T22:59:17.287Z,4.69
2018-12-12T23:01:45.604Z,4.70
2018-12-12T23:04:13.921Z,4.70
2018-12-12T23:06:42.245Z,4.71
2018-12-12T23:09:10.566Z,4.72
2018-12-12T23:11:38.881Z,4.76
2018-12-12T23:14:07.218Z,4.77
2018-12-12T23:16:35.543Z,4.78
2018-12-12T23:19:03.857Z,4.77
2018-12-12T23:21:32.180Z,4.73
2018-12-12T23:24:00.495Z,4.72
2018-12-12T23:26:28.823Z,4.70
2018-12-12T23:28:57.143Z,4.69
2018-12-12T23:31:25.458Z,4.70
2018-12-12T23:33:54.427Z,4.70
2018-12-12T23:36:26.944Z,4.68
2018-12-12T23:38:51.311Z,4.67
2018-12-12T23:41:19.631Z,4.61
2018-12-12T23:43:47.969Z,4.61
2018-12-12T23:46:16.313Z,4.61
2018-12-12T23:48:44.608Z,4.62
2018-12-12T23:51:12.925Z,4.63
2018-12-12T23:53:42.207Z,4.63
2018-12-12T23:56:10.829Z,4.63
2018-12-12T23:58:39.149Z,4.60
